Time;durP1;ratioP1;P1;durP2;ratioP2;P2;SDS_P1;SDS_P2;PMS_P1;PMS_P2;Temp;Humidity;BMP_temperature;BMP_pressure;BME280_temperature;BME280_humidity;BME280_pressure;Samples;Min_cycle;Max_cycle;Signal;HPM_P1;HPM_P2
2022/09/21 00:04:42;;;;;;;3.33;0.90;;;;;;;10.51;100.00;96519.78;10331726;28;96867;-68
2022/09/21 00:09:45;;;;;;;2.33;0.90;;;;;;;10.43;100.00;96521.31;10327233;28;98880;-69
2022/09/21 00:14:49;;;;;;;4.07;1.13;;;;;;;10.41;100.00;96525.06;10335125;28;97278;-68
2022/09/21 00:19:53;;;;;;;2.17;0.88;;;;;;;10.38;100.00;96513.09;10328938;28;98805;-69
2022/09/21 00:24:56;;;;;;;1.63;0.95;;;;;;;10.38;100.00;96514.88;10335239;28;97052;-68
2022/09/21 00:30:01;;;;;;;1.92;1.02;;;;;;;10.31;100.00;96519.03;10337793;28;96844;-69
2022/09/21 00:35:06;;;;;;;2.42;0.90;;;;;;;10.25;100.00;96517.75;10337481;28;96743;-68
2022/09/21 00:40:10;;;;;;;2.60;1.20;;;;;;;10.16;100.00;96519.41;10338126;28;97017;-68
2022/09/21 00:45:19;;;;;;;3.03;0.90;;;;;;;10.13;100.00;96513.66;10338333;28;96801;-68
2022/09/21 00:50:24;;;;;;;2.05;1.20;;;;;;;10.02;100.00;96507.59;10337959;28;97137;-68
2022/09/21 00:55:32;;;;;;;2.30;1.17;;;;;;;9.94;100.00;96504.03;10337596;28;96783;-67
2022/09/21 01:00:36;;;;;;;3.88;1.27;;;;;;;9.89;100.00;96504.47;10317138;28;97262;-67
2022/09/21 01:05:40;;;;;;;3.92;1.10;;;;;;;9.81;100.00;96502.53;10307175;28;96759;-68
2022/09/21 01:10:58;;;;;;;3.37;0.90;;;;;;;9.67;100.00;96492.50;10322566;28;100837;-67
2022/09/21 01:16:09;;;;;;;2.72;0.85;;;;;;;9.60;100.00;96504.44;10327404;28;96881;-68
2022/09/21 01:21:25;;;;;;;3.47;1.33;;;;;;;9.56;100.00;96495.22;10327437;28;98726;-68
2022/09/21 01:26:44;;;;;;;4.47;1.10;;;;;;;9.42;100.00;96504.22;10305771;28;96898;-68
2022/09/21 01:31:53;;;;;;;1.70;0.95;;;;;;;9.31;100.00;96502.53;10307703;28;97166;-68
2022/09/21 01:37:00;;;;;;;3.15;1.08;;;;;;;9.18;100.00;96496.78;10331134;28;98932;-68
2022/09/21 01:42:06;;;;;;;1.35;0.85;;;;;;;9.17;100.00;96495.09;10320354;28;98435;-68
2022/09/21 01:47:12;;;;;;;2.40;1.10;;;;;;;9.12;100.00;96492.88;10311501;28;97800;-68
2022/09/21 01:52:21;;;;;;;3.63;1.20;;;;;;;8.99;100.00;96487.09;10376980;28;96971;-68
2022/09/21 01:57:34;;;;;;;3.30;1.20;;;;;;;8.88;100.00;96488.84;10362667;28;96991;-68
2022/09/21 02:02:42;;;;;;;1.65;1.05;;;;;;;8.70;100.00;96477.38;10335204;28;96716;-68
2022/09/21 02:07:45;;;;;;;3.25;1.50;;;;;;;8.68;100.00;96487.91;10335515;28;96785;-68
2022/09/21 02:12:50;;;;;;;5.15;1.88;;;;;;;8.56;100.00;96483.75;10335944;28;96692;-68
2022/09/21 02:18:00;;;;;;;;;;;;;;;8.51;100.00;96483.31;10322176;28;96857;-68
2022/09/21 02:23:09;;;;;;;3.35;1.30;;;;;;;8.46;100.00;96481.09;10316812;28;98222;-68
2022/09/21 02:28:24;;;;;;;3.60;1.48;;;;;;;8.32;100.00;96484.03;10323770;28;97798;-68
2022/09/21 02:33:34;;;;;;;4.20;1.10;;;;;;;8.12;100.00;96478.69;10314652;28;96902;-67
2022/09/21 02:38:45;;;;;;;4.07;1.33;;;;;;;7.92;100.00;96488.13;10327780;28;96926;-68
2022/09/21 02:43:51;;;;;;;3.13;1.20;;;;;;;7.82;100.00;96487.22;10334541;28;98333;-68
2022/09/21 02:49:00;;;;;;;4.82;1.13;;;;;;;7.71;100.00;96475.09;10359969;28;97280;-68
2022/09/21 02:54:06;;;;;;;2.63;1.30;;;;;;;7.67;100.00;96478.09;10317420;28;97662;-68
2022/09/21 02:59:10;;;;;;;3.88;1.45;;;;;;;7.58;100.00;96480.47;10320843;28;96869;-68
2022/09/21 03:04:14;;;;;;;2.17;1.10;;;;;;;7.50;100.00;96477.66;10329752;28;97753;-68
2022/09/21 03:09:17;;;;;;;1.38;1.15;;;;;;;7.38;100.00;96478.63;10331558;28;99039;-68
2022/09/21 03:14:21;;;;;;;3.33;2.00;;;;;;;7.33;100.00;96476.38;10321377;28;97686;-68
2022/09/21 03:19:27;;;;;;;2.78;1.42;;;;;;;7.21;100.00;96469.56;10331811;28;96859;-68
2022/09/21 03:24:47;;;;;;;2.75;1.40;;;;;;;7.12;100.00;96472.91;10334916;28;97721;-68
2022/09/21 03:29:50;;;;;;;4.45;1.70;;;;;;;7.16;100.00;96479.50;10332000;28;97213;-69
2022/09/21 03:34:54;;;;;;;3.35;1.75;;;;;;;7.03;100.00;96474.44;10334268;28;99162;-70
2022/09/21 03:39:57;;;;;;;5.55;1.58;;;;;;;6.95;100.00;96468.97;10345919;28;96700;-70
2022/09/21 03:45:01;;;;;;;3.47;1.80;;;;;;;6.84;100.00;96460.25;10323306;28;96802;-70
2022/09/21 03:50:06;;;;;;;5.50;1.63;;;;;;;6.68;100.00;96470.19;10324634;28;96963;-70
2022/09/21 03:55:11;;;;;;;9.13;1.90;;;;;;;6.61;100.00;96479.38;10339780;28;96704;-69
2022/09/21 04:00:15;;;;;;;4.57;1.50;;;;;;;6.59;100.00;96468.28;10339173;28;96983;-67
2022/09/21 04:05:19;;;;;;;6.13;2.05;;;;;;;6.62;100.00;96470.63;10364555;28;96775;-67
2022/09/21 04:10:25;;;;;;;4.05;1.58;;;;;;;6.59;100.00;96476.06;10350816;28;96865;-67
2022/09/21 04:15:29;;;;;;;4.03;1.70;;;;;;;6.50;100.00;96475.00;10339114;28;97047;-67
2022/09/21 04:20:34;;;;;;;4.32;1.48;;;;;;;6.39;100.00;96475.81;10348258;28;98866;-67
2022/09/21 04:25:36;;;;;;;4.28;1.70;;;;;;;6.35;100.00;96484.78;10301995;28;97754;-67
2022/09/21 04:30:39;;;;;;;3.38;1.88;;;;;;;6.29;100.00;96480.03;10330790;28;96966;-67
2022/09/21 04:35:43;;;;;;;3.55;1.80;;;;;;;6.07;100.00;96480.84;10309266;28;97195;-67
2022/09/21 04:40:54;;;;;;;3.60;1.70;;;;;;;6.03;100.00;96485.41;10311298;28;96726;-67
2022/09/21 04:45:57;;;;;;;4.65;1.90;;;;;;;5.90;100.00;96490.66;10304509;28;97763;-67
2022/09/21 04:51:02;;;;;;;3.28;1.60;;;;;;;5.89;100.00;96488.19;10323376;28;96769;-67
2022/09/21 04:56:06;;;;;;;2.05;1.70;;;;;;;5.88;100.00;96496.94;10342082;28;96885;-66
2022/09/21 05:01:09;;;;;;;5.50;1.90;;;;;;;5.79;100.00;96493.25;10339146;28;96996;-66
2022/09/21 05:06:13;;;;;;;3.45;1.90;;;;;;;5.72;100.00;96490.25;10337593;28;97983;-67
2022/09/21 05:11:18;;;;;;;4.87;2.40;;;;;;;5.74;100.00;96492.75;10336718;28;97204;-67
2022/09/21 05:16:21;;;;;;;4.73;2.03;;;;;;;5.71;100.00;96491.19;10336656;28;96720;-67
2022/09/21 05:21:25;;;;;;;3.63;2.13;;;;;;;5.68;100.00;96496.59;10347463;28;97252;-67
2022/09/21 05:26:28;;;;;;;7.30;2.40;;;;;;;5.54;100.00;96478.63;10378116;28;97072;-67
2022/09/21 05:31:38;;;;;;;4.03;2.05;;;;;;;5.63;100.00;96496.09;10364236;28;96948;-67
2022/09/21 05:36:49;;;;;;;4.30;1.90;;;;;;;5.67;100.00;96507.91;10344286;28;96842;-67
2022/09/21 05:41:52;;;;;;;3.35;2.17;;;;;;;5.66;100.00;96503.66;10363948;28;97177;-66
2022/09/21 05:47:01;;;;;;;3.90;2.10;;;;;;;5.68;100.00;96509.56;10377217;28;96812;-66
2022/09/21 05:52:13;;;;;;;3.85;1.83;;;;;;;5.76;100.00;96508.19;10370871;28;96744;-66
2022/09/21 05:57:23;;;;;;;3.53;1.80;;;;;;;5.73;100.00;96514.41;10318281;28;96851;-67
2022/09/21 06:03:10;;;;;;;2.47;1.70;;;;;;;5.69;100.00;96513.00;10306198;28;97187;-67
2022/09/21 06:08:20;;;;;;;5.18;2.05;;;;;;;5.74;100.00;96521.25;10324566;28;96930;-66
2022/09/21 06:13:23;;;;;;;4.18;2.17;;;;;;;5.83;100.00;96520.59;10357288;28;97058;-66
2022/09/21 06:18:26;;;;;;;3.92;1.90;;;;;;;5.94;100.00;96521.56;10341266;28;97308;-67
2022/09/21 06:23:30;;;;;;;9.68;2.33;;;;;;;6.12;100.00;96521.97;10341159;28;97952;-66
2022/09/21 06:28:33;;;;;;;12.07;5.90;;;;;;;6.26;100.00;96519.22;10340898;28;96840;-67
2022/09/21 06:33:36;;;;;;;20.42;9.30;;;;;;;6.39;100.00;96521.69;10340165;28;96968;-67
2022/09/21 06:38:40;;;;;;;14.60;6.90;;;;;;;6.49;100.00;96527.03;10355043;28;96784;-67
2022/09/21 06:43:43;;;;;;;14.75;7.00;;;;;;;6.63;100.00;96525.03;10346892;28;96830;-67
2022/09/21 06:48:47;;;;;;;12.60;5.78;;;;;;;6.81;100.00;96522.81;10341017;28;97121;-66
2022/09/21 06:53:54;;;;;;;11.98;5.50;;;;;;;6.97;100.00;96517.31;10341203;28;97257;-66
2022/09/21 06:58:57;;;;;;;8.85;3.83;;;;;;;7.11;100.00;96521.44;10341366;28;96783;-67
2022/09/21 07:04:00;;;;;;;7.03;2.47;;;;;;;7.52;100.00;96525.13;10340353;28;96751;-67
2022/09/21 07:09:05;;;;;;;8.35;3.28;;;;;;;7.93;100.00;96521.00;10339206;28;96830;-67
2022/09/21 07:14:27;;;;;;;6.50;2.97;;;;;;;8.21;100.00;96516.16;10340356;28;97859;-67
2022/09/21 07:19:30;;;;;;;7.03;2.70;;;;;;;8.39;100.00;96510.38;10349175;28;97553;-67
2022/09/21 07:24:34;;;;;;;5.57;2.50;;;;;;;8.52;100.00;96516.22;10338328;28;97259;-67
2022/09/21 07:29:37;;;;;;;5.25;2.50;;;;;;;8.71;100.00;96500.69;10340533;28;96738;-67
2022/09/21 07:34:40;;;;;;;6.45;2.33;;;;;;;8.88;100.00;96511.44;10340538;28;96937;-67
2022/09/21 07:39:44;;;;;;;5.55;2.42;;;;;;;9.04;100.00;96506.59;10340132;28;96770;-67
2022/09/21 07:44:47;;;;;;;4.60;2.50;;;;;;;9.18;100.00;96496.78;10339524;28;96744;-67
2022/09/21 07:49:50;;;;;;;4.20;2.20;;;;;;;9.39;100.00;96505.31;10340096;28;96734;-67
2022/09/21 07:54:54;;;;;;;5.18;2.25;;;;;;;9.54;100.00;96518.00;10340744;28;96725;-67
2022/09/21 07:59:57;;;;;;;4.75;2.20;;;;;;;9.65;100.00;96510.88;10340245;28;96718;-67
2022/09/21 08:05:00;;;;;;;6.50;2.30;;;;;;;9.76;100.00;96496.88;10339771;28;96784;-67
2022/09/21 08:10:05;;;;;;;6.13;2.40;;;;;;;9.93;100.00;96515.47;10340106;28;96758;-67
2022/09/21 08:15:10;;;;;;;5.55;2.55;;;;;;;9.99;100.00;96513.13;10339542;28;96656;-67
2022/09/21 08:20:33;;;;;;;4.68;2.08;;;;;;;10.15;100.00;96507.34;10368191;28;96895;-67
2022/09/21 08:25:37;;;;;;;4.13;2.28;;;;;;;10.27;100.00;96504.56;10381064;28;96886;-67
2022/09/21 08:30:40;;;;;;;4.00;2.10;;;;;;;10.35;100.00;96496.88;10380265;28;96728;-66
2022/09/21 08:35:43;;;;;;;7.65;2.72;;;;;;;10.55;100.00;96503.72;10349527;28;96677;-67
2022/09/21 08:40:48;;;;;;;4.13;2.10;;;;;;;10.57;100.00;96491.34;10305647;28;97270;-67
2022/09/21 08:45:50;;;;;;;4.03;2.20;;;;;;;10.66;100.00;96502.72;10297478;28;97189;-67
2022/09/21 08:50:56;;;;;;;5.47;2.00;;;;;;;10.70;100.00;96501.47;10297801;28;97128;-67
2022/09/21 08:56:01;;;;;;;3.65;2.20;;;;;;;10.88;100.00;96506.78;10351538;28;96890;-67
2022/09/21 09:01:20;;;;;;;3.58;1.90;;;;;;;11.04;100.00;96503.56;10379175;28;96853;-67
2022/09/21 09:06:34;;;;;;;5.85;2.22;;;;;;;11.16;100.00;96496.34;10343760;28;96658;-67
2022/09/21 09:11:51;;;;;;;4.25;2.17;;;;;;;11.25;100.00;96499.88;10347017;28;96689;-67
2022/09/21 09:17:06;;;;;;;3.75;2.10;;;;;;;11.38;100.00;96496.94;10379416;28;96729;-67
2022/09/21 09:22:16;;;;;;;7.20;2.30;;;;;;;11.40;100.00;96489.78;10296951;28;96652;-67
2022/09/21 09:27:27;;;;;;;5.22;2.47;;;;;;;11.52;100.00;96496.47;10296767;28;96787;-67
2022/09/21 09:32:40;;;;;;;5.97;2.70;;;;;;;11.58;100.00;96490.63;10296712;28;96884;-67
2022/09/21 09:37:45;;;;;;;3.42;2.25;;;;;;;11.57;100.00;96481.13;10376319;28;97026;-67
2022/09/21 09:43:01;;;;;;;5.88;2.28;;;;;;;11.69;100.00;96476.50;10377988;28;96628;-70
2022/09/21 09:48:31;;;;;;;4.55;2.53;;;;;;;11.81;100.00;96482.34;10378427;28;97043;-70
2022/09/21 09:53:34;;;;;;;6.10;2.53;;;;;;;11.96;100.00;96467.78;10369633;28;96944;-70
2022/09/21 09:58:45;;;;;;;5.43;2.35;;;;;;;12.10;100.00;96463.78;10385232;28;96727;-70
2022/09/21 10:04:05;;;;;;;3.95;2.20;;;;;;;12.23;100.00;96463.38;10371222;28;96770;-69
2022/09/21 10:09:20;;;;;;;6.75;2.17;;;;;;;12.30;100.00;96448.69;10344381;28;96869;-69
2022/09/21 10:14:27;;;;;;;4.57;2.50;;;;;;;12.43;100.00;96448.31;10342921;28;96588;-70
2022/09/21 10:19:31;;;;;;;2.80;1.90;;;;;;;12.58;100.00;96451.16;10343417;28;97169;-69
2022/09/21 10:24:37;;;;;;;3.73;1.77;;;;;;;12.69;100.00;96437.81;10372986;28;96914;-70
2022/09/21 10:29:44;;;;;;;3.72;1.88;;;;;;;12.75;100.00;96436.34;10304845;28;98279;-69
2022/09/21 10:35:16;;;;;;;4.70;2.22;;;;;;;12.86;100.00;96431.66;10305548;28;96946;-70
2022/09/21 10:40:25;;;;;;;4.25;2.03;;;;;;;12.98;100.00;96431.44;10300670;28;97758;-68
2022/09/21 10:45:31;;;;;;;5.15;1.92;;;;;;;12.97;100.00;96412.22;10304115;28;97896;-70
2022/09/21 10:50:37;;;;;;;4.40;1.90;;;;;;;13.12;100.00;96433.44;10301237;28;96876;-70
2022/09/21 10:55:42;;;;;;;3.55;2.03;;;;;;;13.12;100.00;96427.38;10306627;28;98559;-70
2022/09/21 11:01:12;;;;;;;2.90;1.73;;;;;;;13.30;100.00;96432.50;10301397;28;97093;-70
2022/09/21 11:06:21;;;;;;;4.15;2.20;;;;;;;13.42;100.00;96423.34;10300000;28;98212;-70
2022/09/21 11:11:38;;;;;;;4.15;2.35;;;;;;;13.47;100.00;96415.81;10326278;28;97018;-70
2022/09/21 11:16:48;;;;;;;3.22;1.90;;;;;;;13.74;100.00;96427.84;10341397;28;96664;-70
2022/09/21 11:21:58;;;;;;;3.90;1.58;;;;;;;13.90;100.00;96420.97;10300673;28;96883;-70
2022/09/21 11:27:06;;;;;;;3.63;2.03;;;;;;;13.91;100.00;96418.16;10299645;28;96571;-70
2022/09/21 11:32:29;;;;;;;2.97;1.80;;;;;;;13.94;100.00;96417.81;10300013;28;96676;-70
2022/09/21 11:37:49;;;;;;;3.83;1.73;;;;;;;14.07;100.00;96419.13;10299521;28;97047;-70
2022/09/21 11:43:05;;;;;;;3.90;2.22;;;;;;;14.27;100.00;96412.56;10322717;28;97122;-70
2022/09/21 11:48:18;;;;;;;4.95;2.03;;;;;;;14.41;100.00;96412.91;10372357;28;97183;-70
2022/09/21 11:53:31;;;;;;;4.38;1.90;;;;;;;14.31;100.00;96398.09;10381570;28;96746;-69
2022/09/21 11:58:39;;;;;;;3.70;1.73;;;;;;;14.62;100.00;96409.72;10381619;28;97657;-69
2022/09/21 12:04:06;;;;;;;4.00;2.00;;;;;;;14.88;99.44;96409.47;10367940;28;96713;-68
2022/09/21 12:09:49;;;;;;;5.32;1.63;;;;;;;14.87;96.40;96399.94;10339185;28;97193;-68
2022/09/21 12:15:00;;;;;;;2.20;1.23;;;;;;;15.12;95.71;96409.34;10338418;28;96789;-69
2022/09/21 12:20:12;;;;;;;3.63;1.40;;;;;;;15.03;95.50;96402.50;10363817;28;96603;-69
2022/09/21 12:25:19;;;;;;;2.95;1.30;;;;;;;15.27;94.79;96403.38;10380219;28;97194;-70
2022/09/21 12:30:24;;;;;;;2.95;1.65;;;;;;;15.40;95.11;96403.63;10371109;28;96872;-69
2022/09/21 12:35:35;;;;;;;3.28;1.30;;;;;;;15.53;90.91;96407.47;10333858;28;97465;-69
2022/09/21 12:40:44;;;;;;;2.03;1.40;;;;;;;15.49;91.20;96401.75;10354712;28;100365;-70
2022/09/21 12:45:53;;;;;;;2.38;1.30;;;;;;;15.75;88.76;96400.63;10380521;28;96685;-69
2022/09/21 12:51:01;;;;;;;3.00;1.58;;;;;;;15.75;87.59;96400.63;10379432;28;96697;-69
2022/09/21 12:56:15;;;;;;;3.28;1.30;;;;;;;15.84;88.67;96410.94;10379948;28;97670;-69
2022/09/21 13:01:30;;;;;;;4.05;1.45;;;;;;;16.01;87.68;96410.78;10378895;28;97130;-69
2022/09/21 13:06:57;;;;;;;4.10;1.58;;;;;;;16.20;87.28;96405.00;10342693;28;97263;-69
2022/09/21 13:12:06;;;;;;;2.55;1.10;;;;;;;16.57;84.20;96398.06;10338170;28;96803;-70
2022/09/21 13:17:21;;;;;;;1.70;1.00;;;;;;;16.76;80.63;96394.09;10337723;28;96695;-69
2022/09/21 13:22:29;;;;;;;4.90;1.30;;;;;;;16.58;80.97;96397.06;10296199;28;96786;-69
2022/09/21 13:28:18;;;;;;;2.75;1.30;;;;;;;16.53;82.13;96399.41;10331559;28;96753;-69
2022/09/21 13:33:37;;;;;;;3.80;1.15;;;;;;;17.09;79.81;96392.88;10347493;28;96715;-70
2022/09/21 13:39:13;;;;;;;2.90;1.15;;;;;;;17.35;74.39;96387.91;10378910;28;96654;-70
2022/09/21 13:44:37;;;;;;;2.70;1.17;;;;;;;17.44;73.85;96393.06;10378616;28;96752;-70
2022/09/21 13:49:45;;;;;;;3.00;1.35;;;;;;;17.27;74.18;96385.38;10341727;28;98467;-70
2022/09/21 13:54:52;;;;;;;2.33;1.35;;;;;;;17.34;74.32;96386.25;10373692;28;96728;-69
2022/09/21 14:00:31;;;;;;;3.70;1.15;;;;;;;17.55;72.27;96388.09;10364573;28;96791;-70
2022/09/21 14:05:39;;;;;;;5.20;1.45;;;;;;;17.96;69.98;96385.88;10342206;28;96993;-70
2022/09/21 14:10:54;;;;;;;2.92;1.00;;;;;;;17.81;67.73;96381.44;10336561;28;96719;-70
2022/09/21 14:16:12;;;;;;;;;;;;;;;17.54;71.81;96383.00;10336813;28;96663;-70
2022/09/21 14:21:19;;;;;;;1.90;1.10;;;;;;;17.84;69.67;96390.84;10349818;28;100454;-70
2022/09/21 14:26:34;;;;;;;2.47;1.30;;;;;;;17.99;66.84;96388.13;10377630;28;96713;-70
2022/09/21 14:31:37;;;;;;;;;;;;;;;18.06;68.46;96387.16;10378349;28;96713;-70
2022/09/21 14:36:44;;;;;;;2.83;1.40;;;;;;;18.05;65.69;96390.84;10339316;28;97038;-70
2022/09/21 14:41:51;;;;;;;2.90;1.17;;;;;;;18.02;66.03;96385.13;10342243;28;97188;-70
2022/09/21 14:47:09;;;;;;;2.30;1.20;;;;;;;18.37;64.34;96391.28;10341777;28;96740;-70
2022/09/21 14:52:31;;;;;;;3.42;1.35;;;;;;;18.15;61.14;96389.69;10370200;28;100438;-70
2022/09/21 14:57:50;;;;;;;4.85;1.20;;;;;;;17.91;60.98;96389.91;10363692;28;97467;-70
2022/09/21 15:03:09;;;;;;;5.07;1.20;;;;;;;18.01;59.73;96386.94;10378829;28;98442;-70
2022/09/21 15:14:15;;;;;;;2.92;1.20;;;;;;;18.87;56.74;96389.34;10314998;28;99775;-70
2022/09/21 15:19:24;;;;;;;4.00;1.00;;;;;;;18.73;55.94;96400.88;10364681;28;96821;-70
2022/09/21 15:24:31;;;;;;;2.63;1.10;;;;;;;18.82;55.52;96394.38;10342277;28;97068;-70
2022/09/21 15:29:37;;;;;;;3.60;1.50;;;;;;;19.06;54.79;96389.66;10341383;28;97938;-70
2022/09/21 15:34:40;;;;;;;2.42;1.08;;;;;;;18.81;54.88;96395.41;10340628;28;97050;-70
2022/09/21 15:39:43;;;;;;;3.28;1.20;;;;;;;19.19;53.01;96395.00;10340694;28;96757;-70
2022/09/21 15:44:49;;;;;;;2.55;1.20;;;;;;;19.15;53.03;96391.09;10340778;28;96825;-70
2022/09/21 15:49:55;;;;;;;1.88;0.90;;;;;;;19.19;53.22;96400.31;10336195;28;97029;-70
2022/09/21 15:55:01;;;;;;;3.42;1.25;;;;;;;19.47;53.72;96399.38;10335318;28;96790;-70
2022/09/21 16:00:17;;;;;;;2.10;0.90;;;;;;;19.53;52.60;96395.91;10340169;28;96828;-71
2022/09/21 16:05:22;;;;;;;2.53;0.95;;;;;;;19.61;52.01;96406.34;10364952;28;97503;-70
2022/09/21 16:10:37;;;;;;;3.25;1.10;;;;;;;19.55;51.21;96398.38;10357984;28;96971;-70
2022/09/21 16:15:42;;;;;;;3.08;1.08;;;;;;;19.34;51.72;96407.28;10335356;28;96907;-70
2022/09/21 16:20:47;;;;;;;2.15;1.00;;;;;;;18.81;50.25;96403.34;10334973;28;96697;-71
2022/09/21 16:25:57;;;;;;;2.13;0.80;;;;;;;18.10;52.27;96414.88;10331386;28;97380;-71
2022/09/21 16:31:23;;;;;;;2.88;1.30;;;;;;;17.51;54.56;96417.75;10369918;28;97022;-71
2022/09/21 16:36:50;;;;;;;3.60;1.58;;;;;;;17.38;56.31;96419.22;10355365;28;100064;-70
2022/09/21 16:41:57;;;;;;;4.43;2.67;;;;;;;17.09;56.71;96432.47;10338622;28;96812;-69
2022/09/21 16:47:03;;;;;;;1.90;1.20;;;;;;;16.68;57.75;96427.66;10370376;28;96817;-71
2022/09/21 16:52:06;;;;;;;6.72;3.88;;;;;;;16.39;58.71;96439.78;10341781;28;97969;-70
2022/09/21 16:57:12;;;;;;;1.67;0.90;;;;;;;16.08;60.09;96435.44;10336743;28;96896;-70
2022/09/21 17:02:17;;;;;;;3.80;1.40;;;;;;;15.76;61.88;96433.88;10337372;28;97226;-70
2022/09/21 17:07:20;;;;;;;3.75;1.50;;;;;;;15.48;63.02;96437.78;10357780;28;96778;-72
2022/09/21 17:12:24;;;;;;;4.13;1.40;;;;;;;15.22;65.80;96439.91;10337499;28;97112;-71
2022/09/21 17:17:28;;;;;;;3.75;1.88;;;;;;;14.90;66.43;96444.31;10344948;28;96759;-73
2022/09/21 17:22:31;;;;;;;8.50;4.65;;;;;;;14.53;67.54;96453.63;10359019;28;96991;-70
2022/09/21 17:27:34;;;;;;;19.33;13.32;;;;;;;14.32;69.09;96454.13;10334301;28;97611;-71
2022/09/21 17:32:41;;;;;;;5.25;2.22;;;;;;;14.11;71.10;96444.09;10350211;28;98216;-73
2022/09/21 17:37:44;;;;;;;3.75;1.40;;;;;;;13.82;74.64;96455.91;10336133;28;96713;-69
2022/09/21 17:42:47;;;;;;;3.03;1.30;;;;;;;13.52;77.08;96437.16;10315166;28;98462;-69
2022/09/21 17:47:52;;;;;;;2.42;1.30;;;;;;;13.30;78.68;96450.88;10330810;28;97726;-69
2022/09/21 17:58:39;;;;;;;1.92;1.13;;;;;;;12.94;81.01;96446.63;10299997;28;96806;-69
2022/09/21 18:03:44;;;;;;;2.30;1.30;;;;;;;12.82;79.63;96451.31;10332366;28;96742;-69
2022/09/21 18:08:47;;;;;;;3.80;1.30;;;;;;;12.69;79.55;96456.97;10298735;28;96755;-69
2022/09/21 18:13:59;;;;;;;2.38;1.10;;;;;;;12.61;80.46;96458.72;10352700;28;97537;-69
2022/09/21 18:19:16;;;;;;;2.05;1.05;;;;;;;12.48;79.69;96453.91;10341901;28;96844;-69
2022/09/21 18:24:21;;;;;;;3.13;1.40;;;;;;;12.43;78.36;96464.84;10360780;28;96823;-69
2022/09/21 18:29:27;;;;;;;2.15;1.50;;;;;;;12.39;78.00;96473.19;10367430;28;96817;-68
2022/09/21 18:35:02;;;;;;;1.67;1.20;;;;;;;12.29;77.91;96468.03;10374452;28;97009;-69
2022/09/21 18:40:20;;;;;;;3.40;1.40;;;;;;;12.18;78.03;96473.50;10319964;28;98543;-69
2022/09/21 18:45:27;;;;;;;2.30;1.13;;;;;;;12.08;78.82;96482.25;10323942;28;98389;-69
2022/09/21 18:50:37;;;;;;;1.65;1.20;;;;;;;11.91;78.40;96483.09;10338996;28;96853;-69
2022/09/21 18:55:41;;;;;;;5.28;1.40;;;;;;;11.76;78.15;96487.22;10341530;28;96792;-69
2022/09/21 19:00:44;;;;;;;2.63;0.95;;;;;;;11.69;77.89;96485.19;10304792;28;97055;-69
2022/09/21 19:06:22;;;;;;;2.15;1.20;;;;;;;11.64;77.70;96490.06;10300037;28;96786;-68
2022/09/21 19:11:33;;;;;;;4.80;1.30;;;;;;;11.52;77.60;96486.00;10329709;28;98012;-68
2022/09/21 19:16:46;;;;;;;3.45;1.40;;;;;;;11.46;78.09;96494.44;10337000;28;96756;-69
2022/09/21 19:21:57;;;;;;;2.42;1.33;;;;;;;11.41;78.06;96504.50;10317285;28;98866;-66
2022/09/21 19:27:13;;;;;;;5.57;3.13;;;;;;;11.40;77.39;96508.09;10349126;28;96787;-68
2022/09/21 19:32:17;;;;;;;3.85;1.30;;;;;;;11.38;77.27;96504.78;10337648;28;97949;-68
2022/09/21 19:37:21;;;;;;;2.95;1.20;;;;;;;11.34;77.16;96499.84;10350446;28;96731;-68
2022/09/21 19:42:32;;;;;;;1.83;1.10;;;;;;;11.25;77.70;96503.31;10376755;28;96771;-68
2022/09/21 19:47:40;;;;;;;3.35;1.30;;;;;;;11.22;78.18;96500.16;10330431;28;98458;-68
2022/09/21 19:52:46;;;;;;;2.35;1.10;;;;;;;11.16;78.69;96506.81;10357898;28;96703;-68
2022/09/21 20:03:13;;;;;;;3.80;1.45;;;;;;;11.08;80.85;96498.84;10340175;28;96728;-68
2022/09/21 20:08:22;;;;;;;2.08;1.30;;;;;;;11.07;81.42;96507.66;10333035;28;96881;-68
2022/09/21 20:13:35;;;;;;;4.20;1.50;;;;;;;11.03;82.45;96501.09;10316345;28;96843;-68
2022/09/21 20:18:45;;;;;;;2.45;1.48;;;;;;;11.03;83.19;96501.09;10324422;28;98446;-68
2022/09/21 20:23:56;;;;;;;2.20;1.30;;;;;;;11.00;84.10;96494.38;10341243;28;96819;-68
2022/09/21 20:29:01;;;;;;;3.60;1.20;;;;;;;10.94;84.71;96492.31;10325006;28;96741;-68
2022/09/21 20:34:03;;;;;;;37.88;20.23;;;;;;;10.91;85.30;96493.44;10348412;28;97010;-70
2022/09/21 20:39:07;;;;;;;4.47;2.35;;;;;;;10.80;87.00;96491.00;10360993;28;96799;-68
2022/09/21 20:44:13;;;;;;;3.22;1.33;;;;;;;10.64;87.66;96491.59;10344134;28;98954;-67
2022/09/21 20:49:15;;;;;;;3.03;1.60;;;;;;;10.41;88.80;96499.75;10300106;28;97209;-69
2022/09/21 20:54:22;;;;;;;3.25;1.50;;;;;;;10.17;92.70;96494.97;10328496;28;97218;-68
2022/09/21 20:59:26;;;;;;;3.33;2.22;;;;;;;9.96;95.50;96491.69;10333175;28;96975;-68
2022/09/21 21:04:28;;;;;;;5.68;2.50;;;;;;;9.80;98.80;96494.81;10332927;28;97775;-68
2022/09/21 21:09:33;;;;;;;2.88;2.13;;;;;;;9.66;100.00;96498.66;10340454;28;96837;-68
2022/09/21 21:14:36;;;;;;;4.57;2.50;;;;;;;9.54;100.00;96487.56;10333213;28;98528;-68
2022/09/21 21:19:38;;;;;;;4.07;2.50;;;;;;;9.42;100.00;96492.06;10322841;28;97305;-68
2022/09/21 21:24:42;;;;;;;3.22;2.28;;;;;;;9.29;100.00;96488.81;10367734;28;97151;-68
2022/09/21 21:29:48;;;;;;;4.25;2.72;;;;;;;9.15;100.00;96491.81;10335071;28;97337;-68
2022/09/21 21:34:52;;;;;;;9.05;5.22;;;;;;;8.99;100.00;96489.72;10334392;28;96812;-68
2022/09/21 21:39:57;;;;;;;22.17;12.73;;;;;;;8.86;100.00;96493.38;10334484;28;97223;-68
2022/09/21 21:45:00;;;;;;;30.80;16.70;;;;;;;8.75;100.00;96492.63;10315516;28;96739;-68
2022/09/21 21:50:03;;;;;;;27.60;16.88;;;;;;;8.62;100.00;96485.84;10309012;28;96854;-68
2022/09/21 21:55:07;;;;;;;18.20;10.75;;;;;;;8.65;100.00;96501.19;10295249;28;96945;-67
2022/09/21 22:00:12;;;;;;;21.73;11.55;;;;;;;8.57;100.00;96498.44;10301830;28;96921;-67
2022/09/21 22:05:14;;;;;;;16.48;8.75;;;;;;;8.46;100.00;96495.88;10299810;28;97389;-68
2022/09/21 22:10:19;;;;;;;14.93;8.35;;;;;;;8.39;100.00;96505.16;10333697;28;97413;-68
2022/09/21 22:15:22;;;;;;;15.43;9.05;;;;;;;8.26;100.00;96495.78;10331888;28;97263;-68
2022/09/21 22:20:24;;;;;;;11.38;6.80;;;;;;;8.18;100.00;96492.97;10321526;28;98564;-68
2022/09/21 22:25:28;;;;;;;9.75;6.40;;;;;;;8.05;100.00;96487.97;10327286;28;98509;-68
2022/09/21 22:30:31;;;;;;;8.98;6.63;;;;;;;7.92;100.00;96482.91;10333260;28;96737;-68
2022/09/21 22:35:34;;;;;;;8.07;4.90;;;;;;;7.78;100.00;96478.03;10328643;28;96901;-68
2022/09/21 22:40:38;;;;;;;8.20;4.55;;;;;;;7.70;100.00;96473.47;10330295;28;97404;-68
2022/09/21 22:45:41;;;;;;;7.10;4.05;;;;;;;7.68;100.00;96484.91;10292541;28;96888;-67
2022/09/21 22:50:44;;;;;;;7.50;4.15;;;;;;;7.59;100.00;96476.91;10358265;28;96701;-68
2022/09/21 22:55:48;;;;;;;5.25;3.17;;;;;;;7.50;100.00;96480.25;10349284;28;96791;-68
2022/09/21 23:00:51;;;;;;;7.68;3.40;;;;;;;7.49;100.00;96481.22;10297089;28;96906;-68
2022/09/21 23:05:56;;;;;;;4.72;2.78;;;;;;;7.46;100.00;96478.00;10322756;28;97007;-68
2022/09/21 23:11:08;;;;;;;5.88;2.55;;;;;;;7.40;100.00;96487.94;10353160;28;96876;-68
2022/09/21 23:16:13;;;;;;;4.57;2.13;;;;;;;7.33;100.00;96491.97;10339730;28;97447;-68
2022/09/21 23:21:17;;;;;;;6.07;2.27;;;;;;;7.33;100.00;96486.78;10335299;28;97694;-67
2022/09/21 23:26:23;;;;;;;3.37;1.90;;;;;;;7.26;100.00;96479.59;10370572;28;96877;-68
2022/09/21 23:31:27;;;;;;;2.72;1.90;;;;;;;7.20;100.00;96488.72;10338546;28;96679;-68
2022/09/21 23:36:31;;;;;;;5.05;2.10;;;;;;;7.13;100.00;96487.56;10308891;28;96806;-68
2022/09/21 23:41:36;;;;;;;3.90;1.83;;;;;;;7.03;100.00;96480.47;10340705;28;96661;-68
2022/09/21 23:46:39;;;;;;;3.77;1.90;;;;;;;7.05;100.00;96480.34;10335527;28;96886;-68
2022/09/21 23:51:43;;;;;;;3.53;1.90;;;;;;;7.04;100.00;96483.88;10346485;28;96833;-68
2022/09/21 23:56:47;;;;;;;5.05;1.88;;;;;;;7.01;100.00;96487.53;10306367;28;97138;-68
